Time;durP1;ratioP1;P1;durP2;ratioP2;P2;SDS_P1;SDS_P2;PMS_P1;PMS_P2;Temp;Humidity;BMP_temperature;BMP_pressure;BME280_temperature;BME280_humidity;BME280_pressure;Samples;Min_cycle;Max_cycle;Signal;HPM_P1;HPM_P2
2023/06/28 00:00:31;;;;;;;0.80;0.70;;;22.50;63.10;;;;;;5019963;28;20498;-79
2023/06/28 00:02:57;;;;;;;0.52;0.50;;;22.50;63.20;;;;;;5042279;28;20056;-80
2023/06/28 00:05:22;;;;;;;0.88;0.73;;;22.50;63.20;;;;;;5032197;28;20506;-80
2023/06/28 00:07:48;;;;;;;0.52;0.52;;;22.50;63.30;;;;;;5034901;28;20057;-80
2023/06/28 00:10:14;;;;;;;0.60;0.50;;;22.50;63.30;;;;;;5027095;28;20037;-80
2023/06/28 00:12:39;;;;;;;1.05;0.73;;;22.50;63.30;;;;;;5029203;28;20053;-80
2023/06/28 00:15:06;;;;;;;0.65;0.65;;;22.50;63.40;;;;;;5030770;28;20029;-80
2023/06/28 00:17:31;;;;;;;0.70;0.70;;;22.50;63.40;;;;;;5025059;28;20116;-80
2023/06/28 00:20:06;;;;;;;0.65;0.50;;;22.50;63.60;;;;;;5034693;28;20038;-81
2023/06/28 00:22:31;;;;;;;0.50;0.50;;;22.50;63.50;;;;;;5031269;28;20410;-80
2023/06/28 00:25:01;;;;;;;0.82;0.70;;;22.50;63.90;;;;;;5024731;28;20026;-80
2023/06/28 00:27:30;;;;;;;0.50;0.50;;;22.50;63.60;;;;;;5038164;28;20055;-80
2023/06/28 00:29:58;;;;;;;0.50;0.50;;;22.50;63.90;;;;;;5032087;28;20082;-80
2023/06/28 00:32:24;;;;;;;0.70;0.47;;;22.50;63.80;;;;;;5031749;28;20402;-80
2023/06/28 00:34:50;;;;;;;0.63;0.63;;;22.50;63.60;;;;;;5027293;28;20518;-80
2023/06/28 00:37:15;;;;;;;0.50;0.50;;;22.50;63.70;;;;;;5035670;28;20112;-80
2023/06/28 00:39:41;;;;;;;0.60;0.60;;;22.50;63.90;;;;;;5038179;28;20051;-80
2023/06/28 00:42:07;;;;;;;1.27;0.70;;;22.50;63.80;;;;;;5034220;28;20063;-80
2023/06/28 00:44:33;;;;;;;0.77;0.70;;;22.50;63.90;;;;;;5033601;28;20037;-80
2023/06/28 00:46:59;;;;;;;0.60;0.60;;;22.50;63.90;;;;;;5019247;28;20120;-80
2023/06/28 00:49:27;;;;;;;0.60;0.60;;;22.50;63.90;;;;;;5028075;28;20072;-80
2023/06/28 00:51:53;;;;;;;0.80;0.60;;;22.50;63.90;;;;;;5032071;28;20033;-80
2023/06/28 00:54:18;;;;;;;0.60;0.60;;;22.50;63.90;;;;;;5023238;28;20044;-80
2023/06/28 00:56:44;;;;;;;0.60;0.60;;;22.50;64.70;;;;;;5001964;28;20053;-80
2023/06/28 00:59:10;;;;;;;0.50;0.50;;;22.50;64.20;;;;;;5032728;28;20056;-80
2023/06/28 01:01:37;;;;;;;0.45;0.45;;;22.50;63.90;;;;;;5033382;28;20041;-79
2023/06/28 01:04:05;;;;;;;2.35;0.60;;;22.50;63.60;;;;;;5037000;28;20034;-79
2023/06/28 01:06:35;;;;;;;0.70;0.70;;;22.50;64.00;;;;;;5032818;28;20458;-80
2023/06/28 01:09:01;;;;;;;0.75;0.75;;;22.50;64.00;;;;;;5027515;28;20038;-80
2023/06/28 01:11:27;;;;;;;0.50;0.50;;;22.50;64.30;;;;;;5030345;28;20499;-80
2023/06/28 01:13:52;;;;;;;0.50;0.50;;;22.50;64.00;;;;;;5028409;28;20099;-80
2023/06/28 01:16:18;;;;;;;0.60;0.60;;;22.50;64.00;;;;;;5033056;28;20408;-80
2023/06/28 01:18:44;;;;;;;0.68;0.68;;;22.50;64.10;;;;;;5035949;28;20060;-80
2023/06/28 01:21:10;;;;;;;0.38;0.38;;;22.50;65.00;;;;;;5019970;28;20079;-79
2023/06/28 01:23:35;;;;;;;0.50;0.50;;;22.50;64.80;;;;;;5032987;28;20478;-79
2023/06/28 01:26:02;;;;;;;0.45;0.40;;;22.50;64.40;;;;;;5013070;28;20053;-80
2023/06/28 01:28:31;;;;;;;0.68;0.68;;;22.50;64.50;;;;;;5026298;28;20495;-80
2023/06/28 01:30:57;;;;;;;0.40;0.40;;;22.50;64.10;;;;;;5017858;28;20033;-80
2023/06/28 01:33:23;;;;;;;0.65;0.60;;;22.50;64.60;;;;;;5035663;28;20084;-80
2023/06/28 01:35:49;;;;;;;0.50;0.50;;;22.50;64.80;;;;;;5034613;28;20272;-80
2023/06/28 01:38:14;;;;;;;0.50;0.50;;;22.50;64.70;;;;;;5036552;28;20037;-80
2023/06/28 01:40:40;;;;;;;0.60;0.50;;;22.50;64.70;;;;;;5014947;28;20034;-80
2023/06/28 01:43:06;;;;;;;0.60;0.60;;;22.50;65.10;;;;;;5017725;28;20117;-80
2023/06/28 01:45:32;;;;;;;0.73;0.55;;;22.50;64.70;;;;;;5020185;28;20042;-80
2023/06/28 01:47:58;;;;;;;0.50;0.50;;;22.50;64.60;;;;;;5026989;28;20064;-80
2023/06/28 01:50:24;;;;;;;0.40;0.40;;;22.40;64.60;;;;;;5033728;28;20064;-80
2023/06/28 01:52:49;;;;;;;0.50;0.47;;;22.50;64.40;;;;;;5017779;28;20041;-79
2023/06/28 01:55:15;;;;;;;0.60;0.60;;;22.50;64.50;;;;;;5031864;28;20033;-80
2023/06/28 01:57:40;;;;;;;0.70;0.55;;;22.40;64.80;;;;;;5020519;28;20113;-79
2023/06/28 02:00:08;;;;;;;0.55;0.55;;;22.50;64.90;;;;;;5031131;28;20029;-80
2023/06/28 02:02:35;;;;;;;0.50;0.50;;;22.50;64.80;;;;;;5016163;28;20032;-79
2023/06/28 02:05:00;;;;;;;0.50;0.50;;;22.50;64.80;;;;;;5029654;28;20209;-79
2023/06/28 02:07:26;;;;;;;0.70;0.70;;;22.50;64.90;;;;;;5034046;28;20048;-78
2023/06/28 02:09:51;;;;;;;0.47;0.47;;;22.50;64.80;;;;;;5014469;28;20549;-79
2023/06/28 02:12:17;;;;;;;0.43;0.43;;;22.50;64.90;;;;;;5052712;28;20039;-79
2023/06/28 02:14:43;;;;;;;0.77;0.60;;;22.50;65.10;;;;;;5019378;28;20107;-79
2023/06/28 02:17:13;;;;;;;0.60;0.60;;;22.40;65.10;;;;;;5035335;28;20171;-79
2023/06/28 02:19:39;;;;;;;0.95;0.60;;;22.40;64.90;;;;;;5029006;28;20156;-79
2023/06/28 02:22:05;;;;;;;0.63;0.50;;;22.40;65.00;;;;;;5033390;28;20037;-79
2023/06/28 02:24:31;;;;;;;0.50;0.50;;;22.40;65.10;;;;;;5034573;28;20051;-79
2023/06/28 02:26:56;;;;;;;0.50;0.50;;;22.40;65.80;;;;;;5030988;28;20052;-79
2023/06/28 02:29:22;;;;;;;1.10;1.00;;;22.40;65.20;;;;;;5011999;28;20068;-79
2023/06/28 02:31:48;;;;;;;0.55;0.55;;;22.40;65.30;;;;;;5027417;28;20061;-79
2023/06/28 02:34:14;;;;;;;0.40;0.40;;;22.40;65.20;;;;;;5046740;28;20046;-79
2023/06/28 02:36:39;;;;;;;0.60;0.60;;;22.40;65.40;;;;;;5033434;28;20103;-79
2023/06/28 02:39:05;;;;;;;0.35;0.35;;;22.40;65.40;;;;;;5017932;28;20040;-79
2023/06/28 02:41:31;;;;;;;0.50;0.50;;;22.40;65.30;;;;;;5033527;28;20124;-79
2023/06/28 02:43:56;;;;;;;0.50;0.50;;;22.40;65.20;;;;;;5033272;28;20514;-79
2023/06/28 02:46:22;;;;;;;0.60;0.60;;;22.40;65.10;;;;;;5028024;28;20041;-79
2023/06/28 02:48:47;;;;;;;0.52;0.52;;;22.40;65.10;;;;;;5032385;28;20033;-79
2023/06/28 02:51:13;;;;;;;0.60;0.60;;;22.40;65.10;;;;;;5012236;28;20057;-79
2023/06/28 02:53:38;;;;;;;0.60;0.60;;;22.40;65.60;;;;;;5036815;28;20529;-79
2023/06/28 02:56:04;;;;;;;0.57;0.57;;;22.40;64.90;;;;;;5029949;28;20042;-79
2023/06/28 02:58:30;;;;;;;0.40;0.40;;;22.40;64.90;;;;;;5027723;28;20084;-79
2023/06/28 03:00:57;;;;;;;0.50;0.50;;;22.40;65.00;;;;;;5026943;28;20068;-79
2023/06/28 03:03:23;;;;;;;0.50;0.50;;;22.40;65.00;;;;;;5037255;28;20115;-79
2023/06/28 03:05:48;;;;;;;0.50;0.50;;;22.40;64.80;;;;;;5011960;28;20552;-79
2023/06/28 03:08:14;;;;;;;0.50;0.50;;;22.40;65.00;;;;;;5034532;28;20128;-79
2023/06/28 03:10:40;;;;;;;0.57;0.52;;;22.40;65.00;;;;;;5026887;28;20046;-79
2023/06/28 03:13:05;;;;;;;0.50;0.50;;;22.40;65.30;;;;;;5035050;28;20033;-80
2023/06/28 03:15:31;;;;;;;1.00;0.50;;;22.40;64.90;;;;;;5034370;28;20051;-80
2023/06/28 03:17:57;;;;;;;0.50;0.50;;;22.40;65.10;;;;;;5029839;28;20042;-80
2023/06/28 03:20:22;;;;;;;0.47;0.43;;;22.40;65.10;;;;;;5023823;28;20051;-79
2023/06/28 03:22:49;;;;;;;0.40;0.40;;;22.40;65.30;;;;;;5032972;28;20090;-79
2023/06/28 03:25:15;;;;;;;0.47;0.47;;;22.40;65.30;;;;;;5027631;28;20084;-80
2023/06/28 03:27:41;;;;;;;0.40;0.40;;;22.40;65.30;;;;;;5027683;28;20748;-79
2023/06/28 03:30:07;;;;;;;0.45;0.45;;;22.40;65.40;;;;;;5031374;28;20047;-79
2023/06/28 03:32:32;;;;;;;0.45;0.45;;;22.40;65.30;;;;;;5014181;28;20041;-80
2023/06/28 03:34:58;;;;;;;0.30;0.30;;;22.40;65.30;;;;;;5005629;28;20058;-80
2023/06/28 03:37:23;;;;;;;0.77;0.77;;;22.40;65.30;;;;;;5034837;28;20079;-80
2023/06/28 03:39:49;;;;;;;0.57;0.57;;;22.40;65.30;;;;;;5038558;28;20038;-79
2023/06/28 03:42:14;;;;;;;0.73;0.60;;;22.40;65.30;;;;;;5018632;28;20131;-79
2023/06/28 03:44:40;;;;;;;0.43;0.40;;;22.40;65.20;;;;;;5040540;28;20033;-79
2023/06/28 03:47:06;;;;;;;0.70;0.70;;;22.40;65.10;;;;;;5071524;28;20394;-79
2023/06/28 03:49:31;;;;;;;0.43;0.43;;;22.40;65.20;;;;;;5032709;28;20030;-79
2023/06/28 03:51:57;;;;;;;0.40;0.40;;;22.40;65.20;;;;;;5037011;28;20036;-79
2023/06/28 03:54:22;;;;;;;0.57;0.57;;;22.40;65.20;;;;;;5065099;28;20041;-79
2023/06/28 03:56:49;;;;;;;0.57;0.57;;;22.40;65.30;;;;;;5036138;28;20029;-79
2023/06/28 03:59:14;;;;;;;0.52;0.43;;;22.40;65.20;;;;;;5043309;28;20030;-79
2023/06/28 04:01:40;;;;;;;0.50;0.50;;;22.40;65.30;;;;;;5030137;28;20048;-79
2023/06/28 04:04:05;;;;;;;0.47;0.47;;;22.40;65.30;;;;;;5044722;28;20426;-79
2023/06/28 04:06:31;;;;;;;0.38;0.38;;;22.30;65.10;;;;;;5050833;28;20025;-79
2023/06/28 04:08:56;;;;;;;0.40;0.40;;;22.40;65.20;;;;;;5043271;28;20068;-79
2023/06/28 04:11:22;;;;;;;0.38;0.38;;;22.40;65.10;;;;;;5036192;28;20404;-79
2023/06/28 04:13:47;;;;;;;1.02;0.52;;;22.40;65.20;;;;;;5038380;28;20045;-79
2023/06/28 04:16:13;;;;;;;0.43;0.43;;;22.40;65.20;;;;;;5035015;28;20026;-79
2023/06/28 04:18:39;;;;;;;0.35;0.35;;;22.40;65.20;;;;;;5032620;28;20057;-79
2023/06/28 04:21:04;;;;;;;0.40;0.40;;;22.40;65.20;;;;;;5028720;28;20121;-79
2023/06/28 04:23:30;;;;;;;0.35;0.35;;;22.40;65.10;;;;;;5029748;28;20041;-79
2023/06/28 04:25:57;;;;;;;0.40;0.40;;;22.40;65.10;;;;;;5024400;28;20084;-79
2023/06/28 04:28:23;;;;;;;0.40;0.40;;;22.40;65.10;;;;;;5030600;28;20506;-79
2023/06/28 04:30:49;;;;;;;0.40;0.40;;;22.40;65.20;;;;;;5024526;28;20095;-79
2023/06/28 04:33:18;;;;;;;0.40;0.40;;;22.40;65.20;;;;;;5027851;28;20049;-79
2023/06/28 04:35:46;;;;;;;0.40;0.40;;;22.40;65.20;;;;;;5013687;28;20056;-79
2023/06/28 04:38:13;;;;;;;0.40;0.40;;;22.40;65.00;;;;;;5026435;28;20042;-79
2023/06/28 04:40:39;;;;;;;0.40;0.40;;;22.40;64.90;;;;;;5028792;28;20033;-79
2023/06/28 04:43:09;;;;;;;0.43;0.43;;;22.40;65.00;;;;;;5043601;28;20442;-79
2023/06/28 04:45:36;;;;;;;0.40;0.40;;;22.40;65.00;;;;;;5034230;28;20033;-79
2023/06/28 04:48:05;;;;;;;0.75;0.75;;;22.40;64.70;;;;;;5022046;28;20045;-79
2023/06/28 04:50:36;;;;;;;0.80;0.70;;;22.30;61.50;;;;;;5026146;28;20557;-79
2023/06/28 04:53:05;;;;;;;1.23;1.00;;;22.10;60.80;;;;;;5030683;28;20081;-79
2023/06/28 04:55:34;;;;;;;1.20;1.10;;;21.90;60.50;;;;;;5043130;28;20045;-79
2023/06/28 04:58:03;;;;;;;1.30;1.10;;;21.70;60.00;;;;;;5028664;28;20048;-79
2023/06/28 05:00:29;;;;;;;2.65;1.08;;;21.70;60.00;;;;;;5032041;28;20454;-79
2023/06/28 05:03:00;;;;;;;1.85;1.08;;;21.60;60.30;;;;;;5031255;28;20061;-79
2023/06/28 05:05:26;;;;;;;1.33;1.17;;;21.50;60.30;;;;;;5039705;28;20042;-79
2023/06/28 05:07:54;;;;;;;1.45;1.25;;;21.50;60.20;;;;;;5026156;28;20033;-78
2023/06/28 05:10:21;;;;;;;1.55;1.20;;;21.50;59.90;;;;;;5049977;28;20082;-78
2023/06/28 05:12:48;;;;;;;1.60;1.13;;;21.50;59.80;;;;;;5042137;28;20041;-79
2023/06/28 05:15:14;;;;;;;1.42;1.00;;;21.50;59.80;;;;;;5043503;28;20049;-79
2023/06/28 05:17:39;;;;;;;3.13;1.45;;;21.40;60.00;;;;;;5030357;28;20075;-80
2023/06/28 05:20:05;;;;;;;1.70;1.60;;;21.40;60.00;;;;;;5004863;28;20033;-79
2023/06/28 05:22:31;;;;;;;1.95;1.35;;;21.50;60.60;;;;;;5037780;28;20057;-76
2023/06/28 05:24:57;;;;;;;2.47;1.60;;;20.80;62.30;;;;;;5020422;28;20047;-81
2023/06/28 05:27:22;;;;;;;2.33;1.60;;;20.40;63.90;;;;;;5035483;28;20049;-81
2023/06/28 05:29:48;;;;;;;2.15;1.60;;;20.00;64.70;;;;;;5047234;28;20120;-81
2023/06/28 05:32:13;;;;;;;2.17;1.63;;;19.70;65.80;;;;;;5025120;28;20135;-81
2023/06/28 05:34:39;;;;;;;2.92;1.50;;;19.70;65.90;;;;;;5050954;28;20537;-80
2023/06/28 05:37:05;;;;;;;1.75;1.23;;;19.70;65.90;;;;;;5053657;28;20083;-82
2023/06/28 05:39:31;;;;;;;2.42;1.40;;;19.50;66.90;;;;;;5048669;28;20049;-81
2023/06/28 05:41:56;;;;;;;3.70;1.60;;;19.60;67.60;;;;;;5046849;28;20052;-80
2023/06/28 05:44:22;;;;;;;2.20;2.00;;;19.50;67.90;;;;;;5040488;28;20095;-79
2023/06/28 05:46:48;;;;;;;2.92;1.27;;;19.60;68.00;;;;;;5039240;28;20522;-80
2023/06/28 05:49:13;;;;;;;2.00;1.80;;;19.50;68.30;;;;;;5017760;28;20037;-79
2023/06/28 05:51:39;;;;;;;4.13;1.77;;;19.50;68.70;;;;;;5050431;28;20323;-80
2023/06/28 05:54:04;;;;;;;1.52;1.30;;;19.50;69.20;;;;;;5064297;28;20086;-80
2023/06/28 05:56:30;;;;;;;1.50;1.40;;;19.60;70.00;;;;;;5031519;28;20079;-80
2023/06/28 05:58:56;;;;;;;1.60;1.50;;;19.50;70.10;;;;;;4990898;28;20502;-80
2023/06/28 06:01:25;;;;;;;2.83;1.80;;;19.50;69.50;;;;;;5046424;28;20046;-79
2023/06/28 06:03:50;;;;;;;2.35;2.00;;;19.60;69.50;;;;;;5023209;28;20534;-80
2023/06/28 06:06:17;;;;;;;3.65;1.70;;;19.60;69.90;;;;;;5025939;28;20049;-78
2023/06/28 06:08:43;;;;;;;2.33;1.40;;;19.60;69.60;;;;;;5056160;28;20083;-79
2023/06/28 06:11:08;;;;;;;3.65;1.60;;;19.90;69.00;;;;;;5033589;28;20056;-78
2023/06/28 06:13:34;;;;;;;1.63;1.42;;;20.20;68.20;;;;;;5050249;28;20103;-79
2023/06/28 06:16:00;;;;;;;3.35;1.23;;;20.30;67.50;;;;;;5048742;28;20128;-78
2023/06/28 06:18:25;;;;;;;1.10;1.00;;;20.30;67.40;;;;;;5054360;28;20229;-78
2023/06/28 06:20:51;;;;;;;1.27;1.02;;;20.40;67.10;;;;;;5038484;28;20044;-78
2023/06/28 06:23:18;;;;;;;1.63;1.30;;;20.60;66.90;;;;;;5055457;28;20037;-77
2023/06/28 06:25:43;;;;;;;1.77;1.67;;;20.70;66.70;;;;;;5009688;28;20480;-79
2023/06/28 06:28:09;;;;;;;1.35;1.20;;;20.80;66.50;;;;;;5024098;28;20499;-77
2023/06/28 06:30:34;;;;;;;2.05;1.40;;;20.80;66.60;;;;;;5045326;28;20049;-78
2023/06/28 06:33:00;;;;;;;1.98;1.63;;;20.70;66.70;;;;;;4677979;28;9999821;-77
2023/06/28 06:35:26;;;;;;;1.50;1.20;;;20.80;66.80;;;;;;5061444;28;20534;-82
2023/06/28 06:37:52;;;;;;;1.80;1.38;;;20.80;66.90;;;;;;5054083;28;20562;-78
2023/06/28 06:40:17;;;;;;;1.67;1.30;;;20.80;66.80;;;;;;5041866;28;20048;-78
2023/06/28 06:42:43;;;;;;;2.08;1.27;;;20.90;66.80;;;;;;5037337;28;20044;-77
2023/06/28 06:45:09;;;;;;;2.58;1.65;;;20.90;66.90;;;;;;5023811;28;20975;-79
2023/06/28 06:47:38;;;;;;;2.80;1.42;;;20.90;67.20;;;;;;5041262;28;20100;-76
2023/06/28 06:50:04;;;;;;;2.42;1.00;;;20.80;67.30;;;;;;5039883;28;20045;-77
2023/06/28 06:52:30;;;;;;;1.80;1.38;;;20.90;67.50;;;;;;5028807;28;20052;-78
2023/06/28 06:54:55;;;;;;;2.05;1.30;;;20.80;67.50;;;;;;5011789;28;20452;-77
2023/06/28 06:57:21;;;;;;;1.92;1.40;;;20.80;67.90;;;;;;5044368;28;20039;-76
2023/06/28 06:59:46;;;;;;;2.28;1.45;;;20.80;68.20;;;;;;5008555;28;20531;-77
2023/06/28 07:02:12;;;;;;;2.92;1.63;;;20.80;68.50;;;;;;5049321;28;20064;-76
2023/06/28 07:04:38;;;;;;;1.75;1.40;;;20.90;68.40;;;;;;5032494;28;20052;-76
2023/06/28 07:07:04;;;;;;;5.40;1.52;;;21.00;68.10;;;;;;5027094;28;20063;-76
2023/06/28 07:09:29;;;;;;;2.72;1.50;;;21.10;68.10;;;;;;5030751;28;20080;-76
2023/06/28 07:11:55;;;;;;;1.63;1.20;;;21.10;68.70;;;;;;5034750;28;20498;-76
2023/06/28 07:14:21;;;;;;;1.77;1.52;;;21.10;67.90;;;;;;5045421;28;20049;-76
2023/06/28 07:16:46;;;;;;;2.45;1.50;;;21.10;67.90;;;;;;5014437;28;20569;-77
2023/06/28 07:19:12;;;;;;;1.90;1.15;;;21.10;67.80;;;;;;5049028;28;20053;-76
2023/06/28 07:21:38;;;;;;;3.00;1.98;;;21.20;67.80;;;;;;5034869;28;20048;-76
2023/06/28 07:24:04;;;;;;;2.70;1.50;;;21.20;67.90;;;;;;5033521;28;20063;-76
2023/06/28 07:26:29;;;;;;;1.98;1.48;;;21.20;67.70;;;;;;5016344;28;20495;-76
2023/06/28 07:28:55;;;;;;;1.52;1.42;;;21.30;67.80;;;;;;5044945;28;20044;-76
2023/06/28 07:31:21;;;;;;;2.10;1.20;;;21.30;67.80;;;;;;5048937;28;20519;-77
2023/06/28 07:33:46;;;;;;;1.65;1.23;;;21.30;67.60;;;;;;5020985;28;20041;-76
2023/06/28 07:36:12;;;;;;;3.03;1.42;;;21.30;68.40;;;;;;5067572;28;20689;-76
2023/06/28 07:38:37;;;;;;;3.85;1.50;;;21.30;67.50;;;;;;5044626;28;20040;-76
2023/06/28 07:41:03;;;;;;;1.50;1.13;;;21.40;67.60;;;;;;5040332;28;20464;-76
2023/06/28 07:43:28;;;;;;;1.30;1.20;;;21.40;67.50;;;;;;5029492;28;20049;-76
2023/06/28 07:45:58;;;;;;;3.65;1.30;;;21.40;67.50;;;;;;5034170;28;20376;-76
2023/06/28 07:48:25;;;;;;;1.30;1.10;;;21.40;67.40;;;;;;5047965;28;20037;-76
2023/06/28 07:50:50;;;;;;;2.83;1.15;;;21.50;67.50;;;;;;5045418;28;20061;-77
2023/06/28 07:53:16;;;;;;;3.53;1.50;;;21.50;67.40;;;;;;5041919;28;20049;-76
2023/06/28 07:55:42;;;;;;;1.60;1.38;;;21.50;67.30;;;;;;5018232;28;20852;-76
2023/06/28 07:58:07;;;;;;;1.55;1.27;;;21.50;67.30;;;;;;5030227;28;20029;-76
2023/06/28 08:00:33;;;;;;;2.88;1.20;;;21.50;67.30;;;;;;5040556;28;20047;-76
2023/06/28 08:02:58;;;;;;;1.45;1.35;;;21.50;67.30;;;;;;5046339;28;20110;-77
2023/06/28 08:05:24;;;;;;;2.70;1.25;;;21.50;67.20;;;;;;5043636;28;20042;-76
2023/06/28 08:07:54;;;;;;;1.23;1.10;;;21.50;67.20;;;;;;5058928;28;20124;-77
2023/06/28 08:10:20;;;;;;;1.63;1.08;;;21.60;67.20;;;;;;5030686;28;20079;-78
2023/06/28 08:12:46;;;;;;;2.58;0.93;;;21.60;67.20;;;;;;5053815;28;20452;-78
2023/06/28 08:15:12;;;;;;;1.30;1.20;;;21.60;68.10;;;;;;5069752;28;20055;-76
2023/06/28 08:17:37;;;;;;;1.48;1.00;;;21.60;67.30;;;;;;5036141;28;20418;-76
2023/06/28 08:20:03;;;;;;;2.03;0.95;;;21.60;67.20;;;;;;5032004;28;20049;-75
2023/06/28 08:22:29;;;;;;;3.13;1.10;;;21.60;67.10;;;;;;5051310;28;20045;-76
2023/06/28 08:24:54;;;;;;;0.80;0.80;;;21.70;67.20;;;;;;5049057;28;20505;-78
2023/06/28 08:27:20;;;;;;;0.80;0.75;;;21.70;67.10;;;;;;5050730;28;20079;-77
2023/06/28 08:29:45;;;;;;;1.00;0.88;;;21.70;67.20;;;;;;5033007;28;20037;-77
2023/06/28 08:32:11;;;;;;;1.42;1.02;;;21.80;67.50;;;;;;5031234;28;20053;-77
2023/06/28 08:34:37;;;;;;;1.40;1.00;;;21.80;67.20;;;;;;5022483;28;20482;-77
2023/06/28 08:37:03;;;;;;;1.30;1.20;;;21.80;67.20;;;;;;5045565;28;20045;-77
2023/06/28 08:39:29;;;;;;;0.95;0.90;;;21.80;67.20;;;;;;5035949;28;20049;-76
2023/06/28 08:41:55;;;;;;;1.98;1.00;;;21.80;67.50;;;;;;5021914;28;20048;-76
2023/06/28 08:44:20;;;;;;;0.90;0.90;;;21.80;67.50;;;;;;5042361;28;20037;-76
2023/06/28 08:46:46;;;;;;;1.30;0.90;;;21.80;67.40;;;;;;5029831;28;20419;-76
2023/06/28 08:49:12;;;;;;;1.00;1.00;;;21.80;67.50;;;;;;5028248;28;20067;-76
2023/06/28 08:51:38;;;;;;;1.13;1.05;;;21.80;67.60;;;;;;5033936;28;20567;-79
2023/06/28 08:54:03;;;;;;;0.98;0.80;;;21.80;67.60;;;;;;5027182;28;20044;-76
2023/06/28 08:56:29;;;;;;;0.77;0.77;;;21.80;67.70;;;;;;5025964;28;20044;-76
2023/06/28 08:58:55;;;;;;;3.30;1.30;;;21.80;67.70;;;;;;5065738;28;20041;-77
2023/06/28 09:01:24;;;;;;;1.83;1.33;;;21.80;67.60;;;;;;5045115;28;20063;-76
2023/06/28 09:03:50;;;;;;;0.95;0.82;;;21.90;67.60;;;;;;5047046;28;20045;-76
2023/06/28 09:06:16;;;;;;;1.77;1.20;;;21.90;67.60;;;;;;5033303;28;20336;-78
2023/06/28 09:08:44;;;;;;;1.00;0.93;;;21.90;67.50;;;;;;5050354;28;20041;-78
2023/06/28 09:11:10;;;;;;;1.05;0.88;;;21.90;67.50;;;;;;5050866;28;20462;-76
2023/06/28 09:13:36;;;;;;;0.93;0.90;;;21.90;67.50;;;;;;5035252;28;20114;-76
2023/06/28 09:16:02;;;;;;;1.25;1.02;;;21.90;67.60;;;;;;5055260;28;20187;-77
2023/06/28 09:18:27;;;;;;;2.63;0.80;;;21.90;67.50;;;;;;5040488;28;20052;-77
2023/06/28 09:20:53;;;;;;;0.95;0.80;;;21.90;67.40;;;;;;5040882;28;20041;-76
2023/06/28 09:23:29;;;;;;;1.08;1.00;;;22.00;68.20;;;;;;5041187;28;20052;-78
2023/06/28 09:25:55;;;;;;;0.82;0.82;;;22.00;67.50;;;;;;5037768;28;20045;-76
2023/06/28 09:28:32;;;;;;;2.55;1.20;;;21.90;67.40;;;;;;5051227;28;20062;-77
2023/06/28 09:30:58;;;;;;;1.65;1.10;;;22.00;67.50;;;;;;5068613;28;20048;-76
2023/06/28 09:33:24;;;;;;;0.93;0.80;;;22.00;67.40;;;;;;5067466;28;20049;-77
2023/06/28 09:35:56;;;;;;;0.60;0.60;;;22.00;67.40;;;;;;5064583;28;20507;-76
2023/06/28 09:38:22;;;;;;;1.63;0.95;;;22.00;67.40;;;;;;5050981;28;20037;-76
2023/06/28 09:40:57;;;;;;;1.02;0.93;;;22.00;67.30;;;;;;5056408;28;20422;-76
2023/06/28 09:43:23;;;;;;;1.50;1.02;;;22.00;67.30;;;;;;5049873;28;20766;-76
2023/06/28 09:45:49;;;;;;;1.02;0.93;;;22.10;67.20;;;;;;5055866;28;20151;-76
2023/06/28 09:48:14;;;;;;;1.02;0.93;;;22.00;67.20;;;;;;5051349;28;20388;-78
2023/06/28 09:50:44;;;;;;;0.95;0.70;;;22.10;67.10;;;;;;5054404;28;20510;-76
2023/06/28 09:53:10;;;;;;;1.08;1.02;;;22.10;67.10;;;;;;5065072;28;20044;-77
2023/06/28 09:55:40;;;;;;;1.55;1.00;;;22.10;67.10;;;;;;5048520;28;20120;-77
2023/06/28 09:58:14;;;;;;;0.82;0.77;;;22.10;67.10;;;;;;5046399;28;20136;-77
2023/06/28 10:00:40;;;;;;;2.22;0.77;;;22.10;67.10;;;;;;5047636;28;20045;-77
2023/06/28 10:03:08;;;;;;;2.67;0.93;;;22.20;67.20;;;;;;5025821;28;20038;-77
2023/06/28 10:05:35;;;;;;;0.82;0.82;;;22.10;67.30;;;;;;5024814;28;20063;-76
2023/06/28 10:08:11;;;;;;;2.58;1.00;;;22.10;67.30;;;;;;5044619;28;20041;-77
2023/06/28 10:10:38;;;;;;;1.15;1.05;;;22.20;68.10;;;;;;5052790;28;20045;-76
2023/06/28 10:13:05;;;;;;;1.05;1.00;;;22.20;67.90;;;;;;5035145;28;20057;-76
2023/06/28 10:15:55;;;;;;;1.45;1.35;;;22.30;67.80;;;;;;5041441;28;20076;-76
2023/06/28 10:18:21;;;;;;;1.77;1.02;;;22.30;68.10;;;;;;5050408;28;20120;-76
2023/06/28 10:20:47;;;;;;;2.13;1.10;;;22.30;68.20;;;;;;5049745;28;20099;-81
2023/06/28 10:23:13;;;;;;;2.13;1.10;;;22.30;69.10;;;;;;5044598;28;20044;-81
2023/06/28 10:25:42;;;;;;;2.35;1.15;;;22.30;68.50;;;;;;5046775;28;20065;-80
2023/06/28 10:28:08;;;;;;;1.40;1.30;;;22.30;68.70;;;;;;5030949;28;20041;-78
2023/06/28 10:30:33;;;;;;;2.47;1.35;;;22.30;68.50;;;;;;5035116;28;20045;-79
2023/06/28 10:32:59;;;;;;;1.45;1.20;;;22.30;68.20;;;;;;5030647;28;20043;-79
2023/06/28 10:35:25;;;;;;;0.85;0.85;;;22.40;68.50;;;;;;5035427;28;20042;-79
2023/06/28 10:37:50;;;;;;;1.17;0.80;;;22.30;69.00;;;;;;5047586;28;20541;-77
2023/06/28 10:40:16;;;;;;;1.10;1.00;;;22.40;68.20;;;;;;5053086;28;20063;-78
2023/06/28 10:42:42;;;;;;;1.15;1.15;;;22.40;68.00;;;;;;5015820;28;20090;-77
2023/06/28 10:45:10;;;;;;;1.60;1.10;;;22.40;68.70;;;;;;5031426;28;20051;-78
2023/06/28 10:47:37;;;;;;;1.65;1.15;;;22.40;67.80;;;;;;5033371;28;20045;-79
2023/06/28 10:50:09;;;;;;;2.22;1.10;;;22.40;67.80;;;;;;5030899;28;20037;-78
2023/06/28 10:52:42;;;;;;;1.00;0.95;;;22.40;67.80;;;;;;5055862;28;20021;-78
2023/06/28 10:55:11;;;;;;;1.52;1.42;;;22.40;67.90;;;;;;5035639;28;20063;-79
2023/06/28 10:57:37;;;;;;;1.30;1.20;;;22.40;67.70;;;;;;5040242;28;20048;-78
2023/06/28 11:00:09;;;;;;;2.20;1.20;;;22.40;67.70;;;;;;5034896;28;20048;-78
2023/06/28 11:03:05;;;;;;;1.40;1.27;;;22.50;67.70;;;;;;5041700;28;20051;-76
2023/06/28 11:05:52;;;;;;;5.40;1.35;;;22.50;68.30;;;;;;5012998;28;20044;-79
2023/06/28 11:08:18;;;;;;;2.35;1.35;;;22.50;67.80;;;;;;5040202;28;20045;-76
2023/06/28 11:10:58;;;;;;;1.17;1.08;;;22.50;67.80;;;;;;5050802;28;20106;-76
2023/06/28 11:13:39;;;;;;;1.05;1.05;;;22.50;68.80;;;;;;5031921;28;20045;-75
2023/06/28 11:16:10;;;;;;;3.85;1.40;;;22.60;69.20;;;;;;5048228;28;20124;-77
2023/06/28 11:18:35;;;;;;;3.35;1.40;;;22.60;69.60;;;;;;5052802;28;20044;-77
2023/06/28 11:21:02;;;;;;;1.38;1.27;;;22.60;69.30;;;;;;5020956;28;20045;-77
2023/06/28 11:23:28;;;;;;;2.88;1.38;;;22.60;69.20;;;;;;5018621;28;20041;-76
2023/06/28 11:25:59;;;;;;;1.40;1.30;;;22.60;69.20;;;;;;5052096;28;20044;-87
2023/06/28 11:28:28;;;;;;;1.30;1.17;;;22.60;69.20;;;;;;5035074;28;20037;-83
2023/06/28 11:30:54;;;;;;;1.58;1.30;;;22.60;69.30;;;;;;5049237;28;20143;-84
2023/06/28 11:33:22;;;;;;;1.60;1.50;;;22.60;69.20;;;;;;5018058;28;20037;-87
2023/06/28 11:35:48;;;;;;;2.13;1.55;;;22.60;69.20;;;;;;5030352;28;20040;-85
2023/06/28 11:38:13;;;;;;;1.67;1.50;;;22.60;69.00;;;;;;5027561;28;20025;-85
2023/06/28 11:40:39;;;;;;;2.90;1.60;;;22.70;69.90;;;;;;5051551;28;20032;-85
2023/06/28 11:43:05;;;;;;;2.05;1.85;;;22.60;69.00;;;;;;5026797;28;20461;-86
2023/06/28 11:45:32;;;;;;;1.90;1.80;;;22.70;69.20;;;;;;5045144;28;20127;-85
2023/06/28 11:47:58;;;;;;;1.70;1.60;;;22.60;69.00;;;;;;5028843;28;20036;-86
2023/06/28 11:50:23;;;;;;;1.75;1.60;;;22.70;69.10;;;;;;5025874;28;20045;-85
2023/06/28 11:52:50;;;;;;;1.38;1.27;;;22.70;68.90;;;;;;5026263;28;20040;-88
2023/06/28 11:55:16;;;;;;;1.60;1.40;;;22.70;68.70;;;;;;5027547;28;20042;-86
2023/06/28 11:57:44;;;;;;;2.42;1.85;;;22.70;68.80;;;;;;5025610;28;20141;-81
2023/06/28 12:00:14;;;;;;;1.42;1.33;;;22.70;68.70;;;;;;5046895;28;20059;-82
2023/06/28 12:02:49;;;;;;;1.92;1.77;;;22.70;68.70;;;;;;5012359;28;20123;-82
2023/06/28 12:05:17;;;;;;;2.17;1.98;;;22.70;68.60;;;;;;5061041;28;20029;-81
2023/06/28 12:07:45;;;;;;;2.45;2.00;;;22.70;68.50;;;;;;5065356;28;20124;-84
2023/06/28 12:10:11;;;;;;;2.28;2.13;;;22.70;68.50;;;;;;5034580;28;20498;-82
2023/06/28 12:12:38;;;;;;;2.50;2.25;;;22.70;68.40;;;;;;5052884;28;20052;-83
2023/06/28 12:15:04;;;;;;;3.33;2.53;;;22.80;68.30;;;;;;5025121;28;20037;-79
2023/06/28 12:17:37;;;;;;;2.10;2.00;;;22.80;68.30;;;;;;5045889;28;20044;-81
2023/06/28 12:20:03;;;;;;;2.13;1.95;;;22.80;68.70;;;;;;5024113;28;20175;-78
2023/06/28 12:22:40;;;;;;;2.67;2.47;;;22.80;68.50;;;;;;5036967;28;20136;-77
2023/06/28 12:25:06;;;;;;;2.65;2.45;;;22.80;68.40;;;;;;5015744;28;20042;-77
2023/06/28 12:27:32;;;;;;;2.67;2.45;;;22.70;68.30;;;;;;5031312;28;20511;-78
2023/06/28 12:29:57;;;;;;;2.65;2.55;;;22.80;68.20;;;;;;5032913;28;20539;-78
2023/06/28 12:32:23;;;;;;;2.70;2.50;;;22.80;68.20;;;;;;5046368;28;20445;-79
2023/06/28 12:34:49;;;;;;;3.40;3.20;;;22.80;68.10;;;;;;5042795;28;20189;-77
2023/06/28 12:37:15;;;;;;;3.90;2.67;;;22.80;68.10;;;;;;5045520;28;20055;-78
2023/06/28 12:39:41;;;;;;;2.95;2.75;;;22.80;68.90;;;;;;5029516;28;20036;-78
2023/06/28 12:42:20;;;;;;;3.05;2.85;;;22.80;68.80;;;;;;5024581;28;20107;-77
2023/06/28 12:44:49;;;;;;;2.70;2.60;;;22.80;68.80;;;;;;5036343;28;20061;-79